sensor_id;sensor_type;location;lat;lon;timestamp;P1;durP1;ratioP1;P2;durP2;ratioP2
11616;SDS011;5864;52.998;9.068;2023-06-26T00:00:03;9.53;;;8.63;;
11616;SDS011;5864;52.998;9.068;2023-06-26T00:02:50;11.00;;;9.47;;
11616;SDS011;5864;52.998;9.068;2023-06-26T00:05:35;10.30;;;9.20;;
11616;SDS011;5864;52.998;9.068;2023-06-26T00:08:23;10.47;;;9.47;;
11616;SDS011;5864;52.998;9.068;2023-06-26T00:11:09;9.43;;;8.53;;
11616;SDS011;5864;52.998;9.068;2023-06-26T00:13:54;9.50;;;8.53;;
11616;SDS011;5864;52.998;9.068;2023-06-26T00:16:40;8.73;;;7.83;;
11616;SDS011;5864;52.998;9.068;2023-06-26T00:19:25;8.90;;;8.10;;
11616;SDS011;5864;52.998;9.068;2023-06-26T00:22:12;9.17;;;8.27;;
11616;SDS011;5864;52.998;9.068;2023-06-26T00:24:59;9.50;;;8.57;;
11616;SDS011;5864;52.998;9.068;2023-06-26T00:27:45;9.57;;;8.67;;
11616;SDS011;5864;52.998;9.068;2023-06-26T00:30:30;9.77;;;8.87;;
11616;SDS011;5864;52.998;9.068;2023-06-26T00:33:17;12.80;;;9.40;;
11616;SDS011;5864;52.998;9.068;2023-06-26T00:36:02;9.80;;;8.90;;
11616;SDS011;5864;52.998;9.068;2023-06-26T00:38:49;10.73;;;9.73;;
11616;SDS011;5864;52.998;9.068;2023-06-26T00:41:36;9.80;;;8.80;;
11616;SDS011;5864;52.998;9.068;2023-06-26T00:44:22;11.37;;;9.03;;
11616;SDS011;5864;52.998;9.068;2023-06-26T00:47:08;9.17;;;8.33;;
11616;SDS011;5864;52.998;9.068;2023-06-26T00:49:55;9.47;;;8.63;;
11616;SDS011;5864;52.998;9.068;2023-06-26T00:52:41;10.63;;;9.63;;
11616;SDS011;5864;52.998;9.068;2023-06-26T00:55:26;10.17;;;9.03;;
11616;SDS011;5864;52.998;9.068;2023-06-26T00:58:13;10.67;;;9.57;;
11616;SDS011;5864;52.998;9.068;2023-06-26T01:00:59;10.83;;;9.73;;
11616;SDS011;5864;52.998;9.068;2023-06-26T01:03:45;10.63;;;9.53;;
11616;SDS011;5864;52.998;9.068;2023-06-26T01:06:35;11.97;;;9.60;;
11616;SDS011;5864;52.998;9.068;2023-06-26T01:09:21;10.53;;;9.50;;
11616;SDS011;5864;52.998;9.068;2023-06-26T01:12:08;9.97;;;8.97;;
11616;SDS011;5864;52.998;9.068;2023-06-26T01:14:54;10.13;;;9.10;;
11616;SDS011;5864;52.998;9.068;2023-06-26T01:17:40;9.97;;;8.97;;
11616;SDS011;5864;52.998;9.068;2023-06-26T01:20:29;11.50;;;10.30;;
11616;SDS011;5864;52.998;9.068;2023-06-26T01:23:17;9.57;;;8.57;;
11616;SDS011;5864;52.998;9.068;2023-06-26T01:26:11;9.80;;;8.80;;
11616;SDS011;5864;52.998;9.068;2023-06-26T01:29:02;9.77;;;8.77;;
11616;SDS011;5864;52.998;9.068;2023-06-26T01:31:49;13.17;;;9.80;;
11616;SDS011;5864;52.998;9.068;2023-06-26T01:34:34;12.43;;;9.90;;
11616;SDS011;5864;52.998;9.068;2023-06-26T01:37:20;10.43;;;9.43;;
11616;SDS011;5864;52.998;9.068;2023-06-26T01:40:07;10.03;;;8.97;;
11616;SDS011;5864;52.998;9.068;2023-06-26T01:42:55;11.27;;;8.87;;
11616;SDS011;5864;52.998;9.068;2023-06-26T01:45:43;10.40;;;9.40;;
11616;SDS011;5864;52.998;9.068;2023-06-26T01:48:30;10.30;;;9.30;;
11616;SDS011;5864;52.998;9.068;2023-06-26T01:51:18;10.90;;;9.90;;
11616;SDS011;5864;52.998;9.068;2023-06-26T01:54:08;10.77;;;9.77;;
11616;SDS011;5864;52.998;9.068;2023-06-26T01:56:58;11.10;;;10.00;;
11616;SDS011;5864;52.998;9.068;2023-06-26T01:59:46;11.50;;;9.83;;
11616;SDS011;5864;52.998;9.068;2023-06-26T02:02:32;11.27;;;9.40;;
11616;SDS011;5864;52.998;9.068;2023-06-26T02:05:19;10.90;;;9.90;;
11616;SDS011;5864;52.998;9.068;2023-06-26T02:08:05;12.00;;;10.90;;
11616;SDS011;5864;52.998;9.068;2023-06-26T02:10:50;11.53;;;10.43;;
11616;SDS011;5864;52.998;9.068;2023-06-26T02:13:37;11.07;;;10.07;;
11616;SDS011;5864;52.998;9.068;2023-06-26T02:16:23;11.23;;;10.00;;
11616;SDS011;5864;52.998;9.068;2023-06-26T02:19:09;11.07;;;10.10;;
11616;SDS011;5864;52.998;9.068;2023-06-26T02:21:54;11.37;;;10.30;;
11616;SDS011;5864;52.998;9.068;2023-06-26T02:24:40;11.93;;;10.53;;
11616;SDS011;5864;52.998;9.068;2023-06-26T02:27:27;11.17;;;9.97;;
11616;SDS011;5864;52.998;9.068;2023-06-26T02:30:12;11.27;;;10.17;;
11616;SDS011;5864;52.998;9.068;2023-06-26T02:33:00;12.30;;;11.10;;
11616;SDS011;5864;52.998;9.068;2023-06-26T02:35:46;12.33;;;11.13;;
11616;SDS011;5864;52.998;9.068;2023-06-26T02:38:33;12.40;;;11.20;;
11616;SDS011;5864;52.998;9.068;2023-06-26T02:41:19;10.77;;;9.77;;
11616;SDS011;5864;52.998;9.068;2023-06-26T02:44:04;11.23;;;10.20;;
11616;SDS011;5864;52.998;9.068;2023-06-26T02:46:50;12.70;;;11.43;;
11616;SDS011;5864;52.998;9.068;2023-06-26T02:49:37;11.53;;;10.43;;
11616;SDS011;5864;52.998;9.068;2023-06-26T02:52:23;12.07;;;10.87;;
11616;SDS011;5864;52.998;9.068;2023-06-26T02:55:08;12.27;;;11.07;;
11616;SDS011;5864;52.998;9.068;2023-06-26T02:57:55;12.50;;;11.30;;
11616;SDS011;5864;52.998;9.068;2023-06-26T03:00:40;11.73;;;10.40;;
11616;SDS011;5864;52.998;9.068;2023-06-26T03:03:26;13.07;;;11.53;;
11616;SDS011;5864;52.998;9.068;2023-06-26T03:06:14;12.10;;;10.80;;
11616;SDS011;5864;52.998;9.068;2023-06-26T03:09:00;12.13;;;10.93;;
11616;SDS011;5864;52.998;9.068;2023-06-26T03:11:46;12.20;;;10.40;;
11616;SDS011;5864;52.998;9.068;2023-06-26T03:14:32;12.20;;;11.00;;
11616;SDS011;5864;52.998;9.068;2023-06-26T03:17:18;11.97;;;10.70;;
11616;SDS011;5864;52.998;9.068;2023-06-26T03:20:03;11.77;;;10.53;;
11616;SDS011;5864;52.998;9.068;2023-06-26T03:22:52;12.70;;;11.47;;
11616;SDS011;5864;52.998;9.068;2023-06-26T03:25:37;13.70;;;12.27;;
11616;SDS011;5864;52.998;9.068;2023-06-26T03:28:23;13.17;;;11.87;;
11616;SDS011;5864;52.998;9.068;2023-06-26T03:31:08;12.80;;;11.60;;
11616;SDS011;5864;52.998;9.068;2023-06-26T03:33:54;12.53;;;11.30;;
11616;SDS011;5864;52.998;9.068;2023-06-26T03:36:40;13.50;;;11.07;;
11616;SDS011;5864;52.998;9.068;2023-06-26T03:39:27;12.60;;;11.00;;
11616;SDS011;5864;52.998;9.068;2023-06-26T03:42:13;12.37;;;11.17;;
11616;SDS011;5864;52.998;9.068;2023-06-26T03:44:58;11.93;;;10.77;;
11616;SDS011;5864;52.998;9.068;2023-06-26T03:47:44;11.93;;;10.60;;
11616;SDS011;5864;52.998;9.068;2023-06-26T03:50:32;13.90;;;11.77;;
11616;SDS011;5864;52.998;9.068;2023-06-26T03:53:18;12.60;;;11.37;;
11616;SDS011;5864;52.998;9.068;2023-06-26T03:56:05;12.97;;;11.70;;
11616;SDS011;5864;52.998;9.068;2023-06-26T03:58:51;12.53;;;11.33;;
11616;SDS011;5864;52.998;9.068;2023-06-26T04:01:36;12.07;;;10.83;;
11616;SDS011;5864;52.998;9.068;2023-06-26T04:04:22;13.57;;;12.17;;
11616;SDS011;5864;52.998;9.068;2023-06-26T04:07:08;12.30;;;11.10;;
11616;SDS011;5864;52.998;9.068;2023-06-26T04:09:54;13.53;;;11.77;;
11616;SDS011;5864;52.998;9.068;2023-06-26T04:12:40;13.73;;;11.47;;
11616;SDS011;5864;52.998;9.068;2023-06-26T04:15:26;12.23;;;11.13;;
11616;SDS011;5864;52.998;9.068;2023-06-26T04:18:11;13.03;;;11.73;;
11616;SDS011;5864;52.998;9.068;2023-06-26T04:21:04;13.47;;;10.47;;
11616;SDS011;5864;52.998;9.068;2023-06-26T04:23:51;11.93;;;10.77;;
11616;SDS011;5864;52.998;9.068;2023-06-26T04:26:37;11.40;;;10.30;;
11616;SDS011;5864;52.998;9.068;2023-06-26T04:29:26;13.70;;;11.37;;
11616;SDS011;5864;52.998;9.068;2023-06-26T04:32:11;13.20;;;11.90;;
11616;SDS011;5864;52.998;9.068;2023-06-26T04:34:57;13.80;;;11.33;;
11616;SDS011;5864;52.998;9.068;2023-06-26T04:37:43;11.03;;;9.93;;
11616;SDS011;5864;52.998;9.068;2023-06-26T04:40:29;13.13;;;11.23;;
11616;SDS011;5864;52.998;9.068;2023-06-26T04:43:15;11.87;;;10.77;;
11616;SDS011;5864;52.998;9.068;2023-06-26T04:46:03;11.47;;;9.93;;
11616;SDS011;5864;52.998;9.068;2023-06-26T04:48:49;16.87;;;12.13;;
11616;SDS011;5864;52.998;9.068;2023-06-26T04:51:34;11.40;;;10.17;;
11616;SDS011;5864;52.998;9.068;2023-06-26T04:54:24;12.20;;;10.90;;
11616;SDS011;5864;52.998;9.068;2023-06-26T04:57:09;16.03;;;11.60;;
11616;SDS011;5864;52.998;9.068;2023-06-26T04:59:55;12.70;;;10.93;;
11616;SDS011;5864;52.998;9.068;2023-06-26T05:02:42;11.00;;;10.00;;
11616;SDS011;5864;52.998;9.068;2023-06-26T05:05:28;11.83;;;10.60;;
11616;SDS011;5864;52.998;9.068;2023-06-26T05:08:14;13.57;;;11.10;;
11616;SDS011;5864;52.998;9.068;2023-06-26T05:11:01;11.37;;;10.17;;
11616;SDS011;5864;52.998;9.068;2023-06-26T05:13:46;11.90;;;10.80;;
11616;SDS011;5864;52.998;9.068;2023-06-26T05:16:32;11.67;;;10.47;;
11616;SDS011;5864;52.998;9.068;2023-06-26T05:19:20;11.90;;;10.23;;
11616;SDS011;5864;52.998;9.068;2023-06-26T05:22:05;11.27;;;10.27;;
11616;SDS011;5864;52.998;9.068;2023-06-26T05:24:52;10.97;;;9.80;;
11616;SDS011;5864;52.998;9.068;2023-06-26T05:27:40;11.23;;;9.77;;
11616;SDS011;5864;52.998;9.068;2023-06-26T05:30:26;10.70;;;9.60;;
11616;SDS011;5864;52.998;9.068;2023-06-26T05:33:15;10.73;;;9.63;;
11616;SDS011;5864;52.998;9.068;2023-06-26T05:36:05;10.60;;;9.50;;
11616;SDS011;5864;52.998;9.068;2023-06-26T05:38:54;11.17;;;10.03;;
11616;SDS011;5864;52.998;9.068;2023-06-26T05:41:42;10.23;;;9.23;;
11616;SDS011;5864;52.998;9.068;2023-06-26T05:44:28;9.70;;;8.77;;
11616;SDS011;5864;52.998;9.068;2023-06-26T05:47:14;10.00;;;9.00;;
11616;SDS011;5864;52.998;9.068;2023-06-26T05:50:00;9.57;;;8.67;;
11616;SDS011;5864;52.998;9.068;2023-06-26T05:52:47;11.47;;;8.83;;
11616;SDS011;5864;52.998;9.068;2023-06-26T05:55:34;11.97;;;8.87;;
11616;SDS011;5864;52.998;9.068;2023-06-26T05:58:20;9.23;;;7.60;;
11616;SDS011;5864;52.998;9.068;2023-06-26T06:01:06;10.03;;;8.97;;
11616;SDS011;5864;52.998;9.068;2023-06-26T06:03:51;10.40;;;8.90;;
11616;SDS011;5864;52.998;9.068;2023-06-26T06:06:37;10.30;;;9.13;;
11616;SDS011;5864;52.998;9.068;2023-06-26T06:09:24;10.33;;;8.60;;
11616;SDS011;5864;52.998;9.068;2023-06-26T06:12:09;8.90;;;8.10;;
11616;SDS011;5864;52.998;9.068;2023-06-26T06:14:55;8.77;;;7.87;;
11616;SDS011;5864;52.998;9.068;2023-06-26T06:17:40;8.87;;;7.97;;
11616;SDS011;5864;52.998;9.068;2023-06-26T06:20:26;10.97;;;7.97;;
11616;SDS011;5864;52.998;9.068;2023-06-26T06:23:11;6.80;;;6.10;;
11616;SDS011;5864;52.998;9.068;2023-06-26T06:25:58;8.87;;;7.50;;
11616;SDS011;5864;52.998;9.068;2023-06-26T06:28:45;7.73;;;6.97;;
11616;SDS011;5864;52.998;9.068;2023-06-26T06:31:30;7.17;;;6.47;;
11616;SDS011;5864;52.998;9.068;2023-06-26T06:34:17;11.13;;;6.67;;
11616;SDS011;5864;52.998;9.068;2023-06-26T06:37:03;7.63;;;6.37;;
11616;SDS011;5864;52.998;9.068;2023-06-26T06:39:48;7.20;;;6.00;;
11616;SDS011;5864;52.998;9.068;2023-06-26T06:42:35;9.23;;;6.60;;
11616;SDS011;5864;52.998;9.068;2023-06-26T06:45:21;9.70;;;6.13;;
11616;SDS011;5864;52.998;9.068;2023-06-26T06:48:06;7.07;;;6.00;;
11616;SDS011;5864;52.998;9.068;2023-06-26T06:50:52;6.33;;;5.60;;
11616;SDS011;5864;52.998;9.068;2023-06-26T06:53:38;7.03;;;5.83;;
11616;SDS011;5864;52.998;9.068;2023-06-26T06:56:23;6.33;;;5.77;;
11616;SDS011;5864;52.998;9.068;2023-06-26T06:59:10;9.00;;;6.23;;
11616;SDS011;5864;52.998;9.068;2023-06-26T07:01:56;8.30;;;6.53;;
11616;SDS011;5864;52.998;9.068;2023-06-26T07:04:41;6.97;;;6.27;;
11616;SDS011;5864;52.998;9.068;2023-06-26T07:07:28;6.53;;;5.93;;
11616;SDS011;5864;52.998;9.068;2023-06-26T07:10:15;6.63;;;6.00;;
11616;SDS011;5864;52.998;9.068;2023-06-26T07:13:01;8.40;;;6.17;;
11616;SDS011;5864;52.998;9.068;2023-06-26T07:15:48;8.63;;;6.97;;
11616;SDS011;5864;52.998;9.068;2023-06-26T07:18:33;7.07;;;6.30;;
11616;SDS011;5864;52.998;9.068;2023-06-26T07:21:19;8.13;;;6.27;;
11616;SDS011;5864;52.998;9.068;2023-06-26T07:24:05;7.27;;;6.57;;
11616;SDS011;5864;52.998;9.068;2023-06-26T07:26:51;7.37;;;5.87;;
11616;SDS011;5864;52.998;9.068;2023-06-26T07:29:36;8.20;;;7.03;;
11616;SDS011;5864;52.998;9.068;2023-06-26T07:32:23;7.17;;;6.47;;
11616;SDS011;5864;52.998;9.068;2023-06-26T07:35:09;7.13;;;6.40;;
11616;SDS011;5864;52.998;9.068;2023-06-26T07:37:54;6.93;;;6.23;;
11616;SDS011;5864;52.998;9.068;2023-06-26T07:40:40;7.83;;;7.13;;
11616;SDS011;5864;52.998;9.068;2023-06-26T07:43:26;6.67;;;6.03;;
11616;SDS011;5864;52.998;9.068;2023-06-26T07:46:11;8.87;;;6.60;;
11616;SDS011;5864;52.998;9.068;2023-06-26T07:48:58;9.80;;;7.83;;
11616;SDS011;5864;52.998;9.068;2023-06-26T07:51:43;8.30;;;7.50;;
11616;SDS011;5864;52.998;9.068;2023-06-26T07:54:29;10.80;;;7.93;;
11616;SDS011;5864;52.998;9.068;2023-06-26T07:57:14;7.77;;;6.97;;
11616;SDS011;5864;52.998;9.068;2023-06-26T08:00:00;8.73;;;7.83;;
11616;SDS011;5864;52.998;9.068;2023-06-26T08:02:46;9.20;;;8.27;;
11616;SDS011;5864;52.998;9.068;2023-06-26T08:05:32;12.90;;;7.70;;
11616;SDS011;5864;52.998;9.068;2023-06-26T08:08:18;8.03;;;7.00;;
11616;SDS011;5864;52.998;9.068;2023-06-26T08:11:04;8.63;;;7.27;;
11616;SDS011;5864;52.998;9.068;2023-06-26T08:13:49;8.80;;;7.30;;
11616;SDS011;5864;52.998;9.068;2023-06-26T08:16:35;7.90;;;6.73;;
11616;SDS011;5864;52.998;9.068;2023-06-26T08:19:21;8.03;;;6.93;;
11616;SDS011;5864;52.998;9.068;2023-06-26T08:22:08;9.13;;;6.93;;
11616;SDS011;5864;52.998;9.068;2023-06-26T08:24:54;8.73;;;6.57;;
11616;SDS011;5864;52.998;9.068;2023-06-26T08:27:39;9.77;;;7.87;;
11616;SDS011;5864;52.998;9.068;2023-06-26T08:30:25;8.53;;;7.60;;
11616;SDS011;5864;52.998;9.068;2023-06-26T08:33:11;8.17;;;7.37;;
11616;SDS011;5864;52.998;9.068;2023-06-26T08:35:57;9.30;;;7.93;;
11616;SDS011;5864;52.998;9.068;2023-06-26T08:38:43;11.80;;;8.43;;
11616;SDS011;5864;52.998;9.068;2023-06-26T08:41:29;10.30;;;8.70;;
11616;SDS011;5864;52.998;9.068;2023-06-26T08:44:15;9.63;;;8.50;;
11616;SDS011;5864;52.998;9.068;2023-06-26T08:47:00;10.33;;;9.30;;
11616;SDS011;5864;52.998;9.068;2023-06-26T08:49:50;11.87;;;8.83;;
11616;SDS011;5864;52.998;9.068;2023-06-26T08:52:42;11.70;;;8.80;;
11616;SDS011;5864;52.998;9.068;2023-06-26T08:55:31;9.30;;;8.03;;
11616;SDS011;5864;52.998;9.068;2023-06-26T08:58:21;9.67;;;7.37;;
11616;SDS011;5864;52.998;9.068;2023-06-26T09:01:06;9.77;;;7.37;;
11616;SDS011;5864;52.998;9.068;2023-06-26T09:03:52;9.07;;;7.10;;
11616;SDS011;5864;52.998;9.068;2023-06-26T09:06:38;13.60;;;6.93;;
11616;SDS011;5864;52.998;9.068;2023-06-26T09:09:24;21.27;;;9.03;;
11616;SDS011;5864;52.998;9.068;2023-06-26T09:12:11;16.53;;;7.97;;
11616;SDS011;5864;52.998;9.068;2023-06-26T09:14:56;16.67;;;7.10;;
11616;SDS011;5864;52.998;9.068;2023-06-26T09:17:42;11.13;;;6.20;;
11616;SDS011;5864;52.998;9.068;2023-06-26T09:20:28;10.73;;;5.77;;
11616;SDS011;5864;52.998;9.068;2023-06-26T09:23:14;6.63;;;5.77;;
11616;SDS011;5864;52.998;9.068;2023-06-26T09:25:59;7.50;;;6.03;;
11616;SDS011;5864;52.998;9.068;2023-06-26T09:28:49;10.53;;;6.33;;
11616;SDS011;5864;52.998;9.068;2023-06-26T09:31:37;11.70;;;6.50;;
11616;SDS011;5864;52.998;9.068;2023-06-26T09:34:29;9.47;;;7.40;;
11616;SDS011;5864;52.998;9.068;2023-06-26T09:37:16;10.40;;;7.17;;
11616;SDS011;5864;52.998;9.068;2023-06-26T09:40:01;11.17;;;7.93;;
11616;SDS011;5864;52.998;9.068;2023-06-26T09:42:48;10.50;;;8.20;;
11616;SDS011;5864;52.998;9.068;2023-06-26T09:45:35;12.10;;;8.83;;
11616;SDS011;5864;52.998;9.068;2023-06-26T09:48:21;9.77;;;8.07;;
11616;SDS011;5864;52.998;9.068;2023-06-26T09:51:07;11.07;;;9.23;;
11616;SDS011;5864;52.998;9.068;2023-06-26T09:53:52;10.93;;;8.77;;
11616;SDS011;5864;52.998;9.068;2023-06-26T09:56:38;11.53;;;9.83;;
11616;SDS011;5864;52.998;9.068;2023-06-26T09:59:24;12.83;;;10.23;;
11616;SDS011;5864;52.998;9.068;2023-06-26T10:02:11;11.57;;;9.73;;
11616;SDS011;5864;52.998;9.068;2023-06-26T10:04:57;11.37;;;9.67;;
11616;SDS011;5864;52.998;9.068;2023-06-26T10:07:42;10.23;;;8.57;;
11616;SDS011;5864;52.998;9.068;2023-06-26T10:10:28;9.50;;;7.40;;
11616;SDS011;5864;52.998;9.068;2023-06-26T10:13:16;9.67;;;6.60;;
11616;SDS011;5864;52.998;9.068;2023-06-26T10:16:06;8.83;;;6.60;;
11616;SDS011;5864;52.998;9.068;2023-06-26T10:18:56;7.60;;;5.57;;
11616;SDS011;5864;52.998;9.068;2023-06-26T10:21:47;6.37;;;4.73;;
11616;SDS011;5864;52.998;9.068;2023-06-26T10:24:33;6.17;;;4.40;;
11616;SDS011;5864;52.998;9.068;2023-06-26T10:27:21;8.70;;;4.23;;
11616;SDS011;5864;52.998;9.068;2023-06-26T10:30:11;5.90;;;3.43;;
11616;SDS011;5864;52.998;9.068;2023-06-26T10:32:59;6.00;;;3.70;;
11616;SDS011;5864;52.998;9.068;2023-06-26T10:35:47;7.30;;;3.70;;
11616;SDS011;5864;52.998;9.068;2023-06-26T10:38:47;6.70;;;3.27;;
11616;SDS011;5864;52.998;9.068;2023-06-26T10:41:37;5.90;;;3.07;;
11616;SDS011;5864;52.998;9.068;2023-06-26T10:44:26;3.27;;;2.70;;
11616;SDS011;5864;52.998;9.068;2023-06-26T10:47:12;5.53;;;2.67;;
11616;SDS011;5864;52.998;9.068;2023-06-26T10:50:17;6.47;;;2.80;;
11616;SDS011;5864;52.998;9.068;2023-06-26T10:53:09;5.13;;;2.50;;
11616;SDS011;5864;52.998;9.068;2023-06-26T10:55:58;3.73;;;2.33;;
11616;SDS011;5864;52.998;9.068;2023-06-26T10:58:45;6.63;;;2.40;;
11616;SDS011;5864;52.998;9.068;2023-06-26T11:01:35;4.00;;;2.50;;
11616;SDS011;5864;52.998;9.068;2023-06-26T11:07:29;5.77;;;2.03;;
11616;SDS011;5864;52.998;9.068;2023-06-26T11:10:16;3.70;;;1.90;;
11616;SDS011;5864;52.998;9.068;2023-06-26T11:13:03;4.57;;;2.07;;
11616;SDS011;5864;52.998;9.068;2023-06-26T11:15:50;3.90;;;2.13;;
11616;SDS011;5864;52.998;9.068;2023-06-26T11:18:35;3.93;;;2.13;;
11616;SDS011;5864;52.998;9.068;2023-06-26T11:21:21;6.23;;;2.60;;
11616;SDS011;5864;52.998;9.068;2023-06-26T11:24:09;5.80;;;2.60;;
11616;SDS011;5864;52.998;9.068;2023-06-26T11:26:57;4.43;;;2.13;;
11616;SDS011;5864;52.998;9.068;2023-06-26T11:29:47;8.47;;;2.67;;
11616;SDS011;5864;52.998;9.068;2023-06-26T11:32:33;5.53;;;2.13;;
11616;SDS011;5864;52.998;9.068;2023-06-26T11:35:22;3.83;;;2.20;;
11616;SDS011;5864;52.998;9.068;2023-06-26T11:38:13;5.40;;;2.43;;
11616;SDS011;5864;52.998;9.068;2023-06-26T11:40:59;3.93;;;1.97;;
11616;SDS011;5864;52.998;9.068;2023-06-26T11:43:46;4.47;;;2.00;;
11616;SDS011;5864;52.998;9.068;2023-06-26T11:46:33;5.73;;;2.20;;
11616;SDS011;5864;52.998;9.068;2023-06-26T11:49:20;5.60;;;1.97;;
11616;SDS011;5864;52.998;9.068;2023-06-26T11:52:09;3.90;;;1.83;;
11616;SDS011;5864;52.998;9.068;2023-06-26T11:54:54;4.70;;;2.00;;
11616;SDS011;5864;52.998;9.068;2023-06-26T11:57:40;5.20;;;2.10;;
11616;SDS011;5864;52.998;9.068;2023-06-26T12:00:27;2.40;;;1.70;;
11616;SDS011;5864;52.998;9.068;2023-06-26T12:03:12;4.00;;;1.80;;
11616;SDS011;5864;52.998;9.068;2023-06-26T12:05:59;4.70;;;2.03;;
11616;SDS011;5864;52.998;9.068;2023-06-26T12:08:47;4.73;;;2.47;;
11616;SDS011;5864;52.998;9.068;2023-06-26T12:11:33;4.20;;;2.17;;
11616;SDS011;5864;52.998;9.068;2023-06-26T12:14:20;5.50;;;2.03;;
11616;SDS011;5864;52.998;9.068;2023-06-26T12:17:09;3.67;;;2.30;;
11616;SDS011;5864;52.998;9.068;2023-06-26T12:19:55;5.33;;;2.00;;
11616;SDS011;5864;52.998;9.068;2023-06-26T12:22:41;3.53;;;1.80;;
11616;SDS011;5864;52.998;9.068;2023-06-26T12:25:26;3.60;;;1.93;;
11616;SDS011;5864;52.998;9.068;2023-06-26T12:28:15;3.10;;;2.20;;
11616;SDS011;5864;52.998;9.068;2023-06-26T12:31:14;2.97;;;2.03;;
11616;SDS011;5864;52.998;9.068;2023-06-26T12:34:01;2.47;;;1.67;;
11616;SDS011;5864;52.998;9.068;2023-06-26T12:36:53;5.80;;;2.07;;
11616;SDS011;5864;52.998;9.068;2023-06-26T12:39:48;7.17;;;2.27;;
11616;SDS011;5864;52.998;9.068;2023-06-26T12:42:34;2.73;;;1.77;;
11616;SDS011;5864;52.998;9.068;2023-06-26T12:45:19;4.10;;;2.23;;
11616;SDS011;5864;52.998;9.068;2023-06-26T12:48:10;4.17;;;2.30;;
11616;SDS011;5864;52.998;9.068;2023-06-26T12:50:58;4.07;;;2.00;;
11616;SDS011;5864;52.998;9.068;2023-06-26T12:53:43;4.40;;;2.20;;
11616;SDS011;5864;52.998;9.068;2023-06-26T12:56:29;6.50;;;2.50;;
11616;SDS011;5864;52.998;9.068;2023-06-26T12:59:15;3.37;;;1.90;;
11616;SDS011;5864;52.998;9.068;2023-06-26T13:02:01;5.70;;;2.10;;
11616;SDS011;5864;52.998;9.068;2023-06-26T13:04:46;2.80;;;2.30;;
11616;SDS011;5864;52.998;9.068;2023-06-26T13:07:33;6.40;;;2.10;;
11616;SDS011;5864;52.998;9.068;2023-06-26T13:10:19;2.77;;;2.03;;
11616;SDS011;5864;52.998;9.068;2023-06-26T13:13:05;3.97;;;2.10;;
11616;SDS011;5864;52.998;9.068;2023-06-26T13:15:50;3.73;;;2.17;;
11616;SDS011;5864;52.998;9.068;2023-06-26T13:18:36;4.27;;;2.13;;
11616;SDS011;5864;52.998;9.068;2023-06-26T13:21:21;4.03;;;1.80;;
11616;SDS011;5864;52.998;9.068;2023-06-26T13:24:09;4.90;;;2.20;;
11616;SDS011;5864;52.998;9.068;2023-06-26T13:26:55;4.03;;;2.23;;
11616;SDS011;5864;52.998;9.068;2023-06-26T13:29:40;5.37;;;2.20;;
11616;SDS011;5864;52.998;9.068;2023-06-26T13:32:26;3.80;;;2.10;;
11616;SDS011;5864;52.998;9.068;2023-06-26T13:35:12;3.80;;;2.10;;
11616;SDS011;5864;52.998;9.068;2023-06-26T13:37:58;4.77;;;2.13;;
11616;SDS011;5864;52.998;9.068;2023-06-26T13:40:45;8.80;;;2.60;;
11616;SDS011;5864;52.998;9.068;2023-06-26T13:43:30;3.00;;;2.10;;
11616;SDS011;5864;52.998;9.068;2023-06-26T13:46:16;3.20;;;2.07;;
11616;SDS011;5864;52.998;9.068;2023-06-26T13:49:01;3.80;;;2.10;;
11616;SDS011;5864;52.998;9.068;2023-06-26T13:51:47;2.13;;;1.90;;
11616;SDS011;5864;52.998;9.068;2023-06-26T13:54:33;2.60;;;1.93;;
11616;SDS011;5864;52.998;9.068;2023-06-26T13:57:20;3.93;;;2.20;;
11616;SDS011;5864;52.998;9.068;2023-06-26T14:00:07;3.53;;;2.20;;
11616;SDS011;5864;52.998;9.068;2023-06-26T14:02:53;3.40;;;1.97;;
11616;SDS011;5864;52.998;9.068;2023-06-26T14:05:40;3.77;;;2.20;;
11616;SDS011;5864;52.998;9.068;2023-06-26T14:08:26;3.80;;;2.00;;
11616;SDS011;5864;52.998;9.068;2023-06-26T14:11:11;5.73;;;2.00;;
11616;SDS011;5864;52.998;9.068;2023-06-26T14:13:58;3.63;;;2.20;;
11616;SDS011;5864;52.998;9.068;2023-06-26T14:16:44;3.03;;;2.40;;
11616;SDS011;5864;52.998;9.068;2023-06-26T14:19:29;2.60;;;2.10;;
11616;SDS011;5864;52.998;9.068;2023-06-26T14:22:15;3.73;;;2.20;;
11616;SDS011;5864;52.998;9.068;2023-06-26T14:25:00;3.60;;;2.30;;
11616;SDS011;5864;52.998;9.068;2023-06-26T14:27:46;4.83;;;2.40;;
11616;SDS011;5864;52.998;9.068;2023-06-26T14:30:33;3.10;;;2.20;;
11616;SDS011;5864;52.998;9.068;2023-06-26T14:33:18;4.07;;;2.30;;
11616;SDS011;5864;52.998;9.068;2023-06-26T14:36:04;3.50;;;2.13;;
11616;SDS011;5864;52.998;9.068;2023-06-26T14:38:50;13.37;;;2.97;;
11616;SDS011;5864;52.998;9.068;2023-06-26T14:41:35;3.63;;;2.10;;
11616;SDS011;5864;52.998;9.068;2023-06-26T14:44:21;3.70;;;2.43;;
11616;SDS011;5864;52.998;9.068;2023-06-26T14:47:08;4.03;;;2.23;;
11616;SDS011;5864;52.998;9.068;2023-06-26T14:49:54;3.93;;;2.20;;
11616;SDS011;5864;52.998;9.068;2023-06-26T14:52:39;5.47;;;2.50;;
11616;SDS011;5864;52.998;9.068;2023-06-26T14:55:25;5.63;;;2.20;;
11616;SDS011;5864;52.998;9.068;2023-06-26T14:58:10;6.07;;;2.60;;
11616;SDS011;5864;52.998;9.068;2023-06-26T15:00:56;3.73;;;2.20;;
11616;SDS011;5864;52.998;9.068;2023-06-26T15:03:43;4.33;;;2.10;;
11616;SDS011;5864;52.998;9.068;2023-06-26T15:06:28;4.73;;;2.27;;
11616;SDS011;5864;52.998;9.068;2023-06-26T15:09:14;5.50;;;2.00;;
11616;SDS011;5864;52.998;9.068;2023-06-26T15:12:00;3.80;;;2.03;;
11616;SDS011;5864;52.998;9.068;2023-06-26T15:14:46;6.23;;;2.37;;
11616;SDS011;5864;52.998;9.068;2023-06-26T15:17:31;3.53;;;2.13;;
11616;SDS011;5864;52.998;9.068;2023-06-26T15:20:18;3.80;;;2.10;;
11616;SDS011;5864;52.998;9.068;2023-06-26T15:23:04;5.30;;;2.07;;
11616;SDS011;5864;52.998;9.068;2023-06-26T15:25:49;4.13;;;1.80;;
11616;SDS011;5864;52.998;9.068;2023-06-26T15:28:35;6.33;;;2.37;;
11616;SDS011;5864;52.998;9.068;2023-06-26T15:31:20;3.50;;;2.17;;
11616;SDS011;5864;52.998;9.068;2023-06-26T15:34:06;4.97;;;2.10;;
11616;SDS011;5864;52.998;9.068;2023-06-26T15:36:53;4.13;;;1.97;;
11616;SDS011;5864;52.998;9.068;2023-06-26T15:39:38;5.27;;;2.50;;
11616;SDS011;5864;52.998;9.068;2023-06-26T15:42:26;8.57;;;2.40;;
11616;SDS011;5864;52.998;9.068;2023-06-26T15:45:11;4.90;;;2.00;;
11616;SDS011;5864;52.998;9.068;2023-06-26T15:47:57;3.27;;;2.00;;
11616;SDS011;5864;52.998;9.068;2023-06-26T15:50:43;2.97;;;1.80;;
11616;SDS011;5864;52.998;9.068;2023-06-26T15:53:34;6.20;;;2.10;;
11616;SDS011;5864;52.998;9.068;2023-06-26T15:56:21;2.70;;;1.93;;
11616;SDS011;5864;52.998;9.068;2023-06-26T15:59:07;5.40;;;2.20;;
11616;SDS011;5864;52.998;9.068;2023-06-26T16:01:53;4.77;;;1.93;;
11616;SDS011;5864;52.998;9.068;2023-06-26T16:04:39;3.60;;;1.83;;
11616;SDS011;5864;52.998;9.068;2023-06-26T16:07:25;4.63;;;2.20;;
11616;SDS011;5864;52.998;9.068;2023-06-26T16:10:14;5.80;;;2.20;;
11616;SDS011;5864;52.998;9.068;2023-06-26T16:13:00;4.07;;;2.13;;
11616;SDS011;5864;52.998;9.068;2023-06-26T16:15:46;4.80;;;1.77;;
11616;SDS011;5864;52.998;9.068;2023-06-26T16:18:31;5.03;;;2.10;;
11616;SDS011;5864;52.998;9.068;2023-06-26T16:21:17;5.50;;;2.00;;
11616;SDS011;5864;52.998;9.068;2023-06-26T16:24:03;3.53;;;1.90;;
11616;SDS011;5864;52.998;9.068;2023-06-26T16:26:50;3.67;;;1.87;;
11616;SDS011;5864;52.998;9.068;2023-06-26T16:29:36;5.37;;;2.00;;
11616;SDS011;5864;52.998;9.068;2023-06-26T16:32:22;3.07;;;1.70;;
11616;SDS011;5864;52.998;9.068;2023-06-26T16:35:08;4.53;;;1.70;;
11616;SDS011;5864;52.998;9.068;2023-06-26T16:37:53;4.07;;;1.80;;
11616;SDS011;5864;52.998;9.068;2023-06-26T16:40:39;4.60;;;1.83;;
11616;SDS011;5864;52.998;9.068;2023-06-26T16:43:26;2.90;;;1.97;;
11616;SDS011;5864;52.998;9.068;2023-06-26T16:46:12;3.87;;;2.17;;
11616;SDS011;5864;52.998;9.068;2023-06-26T16:48:58;3.40;;;1.70;;
11616;SDS011;5864;52.998;9.068;2023-06-26T16:51:43;5.30;;;1.77;;